Time;durP1;ratioP1;P1;durP2;ratioP2;P2;SDS_P1;SDS_P2;PMS_P1;PMS_P2;Temp;Humidity;BMP_temperature;BMP_pressure;BME280_temperature;BME280_humidity;BME280_pressure;Samples;Min_cycle;Max_cycle;Signal;HPM_P1;HPM_P2
2024/01/27 02:53:23;;;;;;;10.77;10.47;;;2.90;99.90;;;;;;6130495;23;20213;-80
2024/01/27 02:55:50;;;;;;;10.67;10.37;;;2.90;99.90;;;;;;6134556;23;20534;-80
2024/01/27 02:58:20;;;;;;;10.70;10.40;;;2.80;99.90;;;;;;6136492;23;20207;-80
2024/01/27 03:00:48;;;;;;;10.40;10.10;;;2.80;99.90;;;;;;6137865;23;20188;-81
2024/01/27 03:03:15;;;;;;;10.60;10.30;;;2.80;99.90;;;;;;6137880;23;20209;-81
2024/01/27 03:05:43;;;;;;;10.40;10.10;;;2.70;99.90;;;;;;6137582;23;20253;-80
2024/01/27 03:08:10;;;;;;;10.57;10.27;;;2.70;99.90;;;;;;6141087;23;20216;-79
2024/01/27 03:10:39;;;;;;;10.50;10.20;;;2.70;99.90;;;;;;6145844;23;20205;-80
2024/01/27 03:13:06;;;;;;;10.67;10.37;;;2.70;99.90;;;;;;6138436;23;20208;-81
2024/01/27 03:15:34;;;;;;;10.57;10.27;;;2.70;99.90;;;;;;6138073;23;20197;-81
2024/01/27 03:18:01;;;;;;;10.80;10.50;;;2.70;99.90;;;;;;6138110;23;20213;-80
2024/01/27 03:20:30;;;;;;;10.27;9.97;;;2.70;99.90;;;;;;6137077;23;20248;-80
2024/01/27 03:22:58;;;;;;;10.63;10.33;;;2.70;99.90;;;;;;6149718;22;20193;-79
2024/01/27 03:25:26;;;;;;;10.53;10.23;;;2.70;99.90;;;;;;6152976;23;20195;-80
2024/01/27 03:27:55;;;;;;;10.47;10.17;;;2.60;99.90;;;;;;6153729;23;20220;-80
2024/01/27 03:30:23;;;;;;;10.37;10.07;;;2.60;99.90;;;;;;6152525;22;20187;-80
2024/01/27 03:32:52;;;;;;;10.60;10.30;;;2.50;99.90;;;;;;6153394;23;20204;-80
2024/01/27 03:35:19;;;;;;;10.53;10.23;;;2.50;99.90;;;;;;6144340;23;20193;-80
2024/01/27 03:37:47;;;;;;;10.50;10.20;;;2.40;99.90;;;;;;6138125;23;20232;-80
2024/01/27 03:40:14;;;;;;;10.17;9.87;;;2.40;99.90;;;;;;6137405;23;20191;-81
2024/01/27 03:42:45;;;;;;;10.47;10.17;;;2.40;99.90;;;;;;6137855;23;20200;-80
2024/01/27 03:45:14;;;;;;;10.27;9.97;;;2.40;99.90;;;;;;6139857;23;20196;-80
2024/01/27 03:47:41;;;;;;;10.70;10.40;;;2.40;99.90;;;;;;6139381;23;20197;-81
2024/01/27 03:50:12;;;;;;;10.40;10.10;;;2.40;99.90;;;;;;6138574;23;20205;-80
2024/01/27 03:52:39;;;;;;;10.43;10.13;;;2.40;99.90;;;;;;6137734;23;20205;-81
2024/01/27 03:55:08;;;;;;;10.20;9.90;;;2.30;99.90;;;;;;6137419;23;20224;-81
2024/01/27 03:57:35;;;;;;;10.40;10.10;;;2.40;99.90;;;;;;6137262;23;20284;-81
2024/01/27 04:00:07;;;;;;;10.33;10.03;;;2.30;99.90;;;;;;6136601;23;20193;-81
2024/01/27 04:02:36;;;;;;;10.20;9.90;;;2.20;99.90;;;;;;6136327;23;20201;-81
2024/01/27 04:05:04;;;;;;;10.37;10.07;;;2.20;99.90;;;;;;6137597;23;20205;-80
2024/01/27 04:07:31;;;;;;;10.20;9.90;;;2.10;99.90;;;;;;6137584;23;20200;-80
2024/01/27 04:09:58;;;;;;;10.10;9.80;;;2.10;99.90;;;;;;6136128;23;20197;-81
2024/01/27 04:12:25;;;;;;;10.13;9.83;;;2.10;99.90;;;;;;6136715;23;20201;-80
2024/01/27 04:14:52;;;;;;;10.23;9.93;;;2.00;99.90;;;;;;6139236;23;20225;-80
2024/01/27 04:17:20;;;;;;;10.43;10.13;;;2.00;99.90;;;;;;6136806;23;20228;-80
2024/01/27 04:19:48;;;;;;;10.27;9.97;;;2.00;99.90;;;;;;6136444;23;20905;-80
2024/01/27 04:22:16;;;;;;;10.40;10.10;;;2.00;99.90;;;;;;6136822;23;20205;-80
2024/01/27 04:24:43;;;;;;;10.27;9.97;;;2.00;99.90;;;;;;6136655;23;20193;-80
2024/01/27 04:27:10;;;;;;;10.93;10.63;;;2.00;99.90;;;;;;6136659;23;20215;-80
2024/01/27 04:29:37;;;;;;;10.60;10.30;;;2.00;99.90;;;;;;6137548;23;20213;-80
2024/01/27 04:32:05;;;;;;;10.43;10.13;;;2.00;99.90;;;;;;6136291;23;20228;-80
2024/01/27 04:34:33;;;;;;;10.77;10.47;;;2.00;99.90;;;;;;6136888;23;20197;-80
2024/01/27 04:37:02;;;;;;;10.53;10.23;;;2.10;99.90;;;;;;6136895;23;20201;-81
2024/01/27 04:39:29;;;;;;;10.73;10.43;;;2.10;99.90;;;;;;6135470;23;20201;-80
2024/01/27 04:41:57;;;;;;;10.63;10.33;;;2.00;99.90;;;;;;6136748;23;20219;-80
2024/01/27 04:44:24;;;;;;;10.50;10.20;;;2.10;99.90;;;;;;6136154;23;20193;-80
2024/01/27 04:46:52;;;;;;;10.70;10.40;;;2.00;99.90;;;;;;6136361;23;20212;-80
2024/01/27 04:49:19;;;;;;;10.40;10.10;;;2.00;99.90;;;;;;6135795;23;20267;-80
2024/01/27 04:51:46;;;;;;;10.60;10.30;;;2.00;99.90;;;;;;6135710;23;20217;-80
2024/01/27 04:54:15;;;;;;;10.53;10.23;;;2.00;99.90;;;;;;6135947;23;20197;-82
2024/01/27 04:56:43;;;;;;;10.40;10.10;;;2.00;99.90;;;;;;6135716;23;20208;-81
2024/01/27 04:59:10;;;;;;;10.20;9.90;;;2.10;99.90;;;;;;6136862;23;20292;-80
2024/01/27 05:01:37;;;;;;;10.17;9.87;;;2.10;99.90;;;;;;6135733;23;20205;-81
2024/01/27 05:04:05;;;;;;;10.33;10.03;;;2.10;99.90;;;;;;6135798;23;20204;-80
2024/01/27 05:06:32;;;;;;;10.40;10.10;;;2.10;99.90;;;;;;6136013;23;20219;-80
2024/01/27 05:08:59;;;;;;;10.80;10.50;;;2.10;99.90;;;;;;6135483;23;20216;-81
2024/01/27 05:11:32;;;;;;;10.20;9.90;;;2.10;99.90;;;;;;6135676;23;20205;-80
2024/01/27 05:13:59;;;;;;;10.30;10.00;;;2.10;99.90;;;;;;6147401;23;20212;-81
2024/01/27 05:16:26;;;;;;;10.27;9.97;;;2.00;99.90;;;;;;6149331;23;20204;-81
2024/01/27 05:18:54;;;;;;;10.07;9.77;;;2.00;99.90;;;;;;6144671;23;20205;-81
2024/01/27 05:21:21;;;;;;;10.20;9.90;;;2.00;99.90;;;;;;6139696;23;20235;-80
2024/01/27 05:23:48;;;;;;;10.30;10.00;;;1.90;99.90;;;;;;6146332;23;20247;-80
2024/01/27 05:26:16;;;;;;;10.30;10.00;;;1.90;99.90;;;;;;6141757;23;20197;-80
2024/01/27 05:28:44;;;;;;;10.23;9.93;;;1.90;99.90;;;;;;6142233;23;20220;-80
2024/01/27 05:31:12;;;;;;;10.00;9.70;;;1.90;99.90;;;;;;6140308;23;20193;-80
2024/01/27 05:33:40;;;;;;;10.30;10.00;;;1.90;99.90;;;;;;6138464;23;20197;-81
2024/01/27 05:36:08;;;;;;;10.30;10.00;;;1.90;99.90;;;;;;6138940;23;20198;-81
2024/01/27 05:38:35;;;;;;;10.40;10.10;;;1.70;99.90;;;;;;6137255;23;20233;-80
2024/01/27 05:41:04;;;;;;;10.37;10.07;;;1.60;99.90;;;;;;6138180;23;20255;-81
2024/01/27 05:43:31;;;;;;;10.23;9.93;;;1.60;99.90;;;;;;6137862;23;20236;-81
2024/01/27 05:46:02;;;;;;;10.40;10.10;;;1.60;99.90;;;;;;6137110;23;20255;-81
2024/01/27 05:48:29;;;;;;;10.50;10.20;;;1.60;99.90;;;;;;6136730;23;20193;-81
2024/01/27 05:50:57;;;;;;;10.30;10.00;;;1.50;99.90;;;;;;6135946;23;20271;-81
2024/01/27 05:53:27;;;;;;;10.37;10.07;;;1.50;99.90;;;;;;6135853;23;20200;-81
2024/01/27 05:55:56;;;;;;;10.17;9.87;;;1.40;99.90;;;;;;6137300;23;20199;-81
2024/01/27 05:58:24;;;;;;;10.30;10.00;;;1.40;99.90;;;;;;6136187;23;20205;-81
2024/01/27 06:00:51;;;;;;;10.30;10.00;;;1.40;99.90;;;;;;6136167;23;20212;-81
2024/01/27 06:03:20;;;;;;;10.10;9.80;;;1.30;99.90;;;;;;6135654;23;20201;-81
2024/01/27 06:05:47;;;;;;;9.97;9.67;;;1.30;99.90;;;;;;6135385;23;20208;-80
2024/01/27 06:08:15;;;;;;;10.20;9.90;;;1.30;99.90;;;;;;6135681;23;20262;-81
2024/01/27 06:10:42;;;;;;;10.20;9.90;;;1.30;99.90;;;;;;6135639;23;20197;-81
2024/01/27 06:13:10;;;;;;;9.97;9.67;;;1.20;99.90;;;;;;6136137;23;20201;-80
2024/01/27 06:15:37;;;;;;;10.10;9.80;;;1.10;99.90;;;;;;6135745;23;20286;-80
2024/01/27 06:18:05;;;;;;;10.23;9.93;;;1.10;99.90;;;;;;6136888;23;20201;-81
2024/01/27 06:20:34;;;;;;;10.20;9.90;;;1.10;99.90;;;;;;6134991;23;20201;-81
2024/01/27 06:23:02;;;;;;;10.20;9.90;;;1.10;99.90;;;;;;6135151;23;20287;-80
2024/01/27 06:25:29;;;;;;;10.20;9.90;;;1.00;99.90;;;;;;6135683;23;20197;-81
2024/01/27 06:27:56;;;;;;;10.30;10.00;;;1.10;99.90;;;;;;6135487;23;20209;-80
2024/01/27 06:30:24;;;;;;;10.30;10.00;;;1.00;99.90;;;;;;6135723;23;20208;-81
2024/01/27 06:32:51;;;;;;;9.87;9.57;;;1.00;99.90;;;;;;6135709;23;20698;-80
2024/01/27 06:35:19;;;;;;;10.07;9.77;;;0.90;99.90;;;;;;6135527;23;20275;-80
2024/01/27 06:37:48;;;;;;;9.83;9.53;;;0.90;99.90;;;;;;6136456;23;20196;-81
2024/01/27 06:40:15;;;;;;;10.30;10.00;;;0.90;99.90;;;;;;6135930;23;20205;-81
2024/01/27 06:42:42;;;;;;;10.30;10.00;;;0.90;99.90;;;;;;6137013;23;20275;-80
2024/01/27 06:45:10;;;;;;;10.43;10.13;;;0.90;99.90;;;;;;6136964;23;20193;-80
2024/01/27 06:47:37;;;;;;;10.50;10.20;;;0.90;99.90;;;;;;6138576;23;20223;-80
2024/01/27 06:50:06;;;;;;;10.23;9.93;;;0.90;99.90;;;;;;6138179;23;20209;-80
2024/01/27 06:52:33;;;;;;;10.10;9.80;;;0.90;99.90;;;;;;6136104;23;20213;-81
2024/01/27 06:55:02;;;;;;;10.10;9.80;;;0.80;99.90;;;;;;6134926;23;20205;-81
2024/01/27 06:57:30;;;;;;;10.10;9.80;;;0.80;99.90;;;;;;6135551;23;20204;-81
2024/01/27 06:59:57;;;;;;;10.33;10.03;;;0.80;99.90;;;;;;6134848;23;20273;-80
2024/01/27 07:02:26;;;;;;;10.00;9.70;;;0.70;99.90;;;;;;6134791;23;20255;-81
2024/01/27 07:04:53;;;;;;;10.00;9.70;;;0.60;99.90;;;;;;6134587;23;20193;-81
2024/01/27 07:07:25;;;;;;;10.03;9.73;;;0.60;99.90;;;;;;6135108;23;20256;-81
2024/01/27 07:09:53;;;;;;;9.60;9.30;;;0.60;99.90;;;;;;6134581;23;20220;-81
2024/01/27 07:12:21;;;;;;;9.43;9.13;;;0.60;99.90;;;;;;6135144;23;20209;-80
2024/01/27 07:14:48;;;;;;;9.90;9.60;;;0.60;99.90;;;;;;6135025;23;20194;-81
2024/01/27 07:17:16;;;;;;;9.67;9.37;;;0.60;99.90;;;;;;6135270;23;20197;-81
2024/01/27 07:19:43;;;;;;;10.10;9.80;;;0.50;99.90;;;;;;6134124;23;21059;-80
2024/01/27 07:22:11;;;;;;;9.83;9.53;;;0.50;99.90;;;;;;6134610;23;20215;-80
2024/01/27 07:24:38;;;;;;;9.97;9.67;;;0.50;99.90;;;;;;6134308;23;20355;-80
2024/01/27 07:27:06;;;;;;;9.90;9.60;;;0.60;99.90;;;;;;6134506;23;20245;-81
2024/01/27 07:29:35;;;;;;;10.00;9.70;;;0.60;99.90;;;;;;6134649;23;20201;-80
2024/01/27 07:32:02;;;;;;;10.20;9.90;;;0.70;99.90;;;;;;6134714;23;20215;-80
2024/01/27 07:34:30;;;;;;;9.67;9.37;;;0.70;99.90;;;;;;6147917;23;20193;-81
2024/01/27 07:36:57;;;;;;;10.03;9.73;;;0.80;99.90;;;;;;6149425;23;20204;-80
2024/01/27 07:39:24;;;;;;;9.97;9.67;;;0.80;99.90;;;;;;6139737;23;20264;-80
2024/01/27 07:41:52;;;;;;;10.00;9.70;;;0.80;99.90;;;;;;6135555;23;20209;-80
2024/01/27 07:44:20;;;;;;;10.40;10.10;;;0.90;99.90;;;;;;6133774;23;20197;-80
2024/01/27 07:46:48;;;;;;;10.00;9.70;;;0.90;99.90;;;;;;6132939;23;20257;-80
2024/01/27 07:49:16;;;;;;;10.20;9.90;;;1.00;99.90;;;;;;6133187;23;20251;-81
2024/01/27 07:51:43;;;;;;;9.97;9.67;;;1.10;99.90;;;;;;6069490;23;1513911;-81
2024/01/27 07:54:10;;;;;;;10.00;9.70;;;1.20;99.90;;;;;;6137258;23;20232;-82
2024/01/27 07:56:41;;;;;;;10.13;9.83;;;1.20;99.90;;;;;;6135366;23;20209;-81
2024/01/27 07:59:13;;;;;;;10.07;9.77;;;1.30;99.90;;;;;;6136021;23;20231;-81
2024/01/27 08:01:41;;;;;;;10.27;9.97;;;1.40;99.90;;;;;;6134529;23;20208;-81
2024/01/27 08:04:10;;;;;;;10.20;9.90;;;1.50;99.90;;;;;;6135079;23;20204;-81
2024/01/27 08:06:48;;;;;;;10.30;10.00;;;1.60;99.90;;;;;;6134729;23;20290;-81
2024/01/27 08:09:16;;;;;;;10.40;10.10;;;1.70;99.90;;;;;;6134909;23;20203;-80
2024/01/27 08:11:44;;;;;;;10.40;10.10;;;1.80;99.90;;;;;;6134787;23;20211;-80
2024/01/27 08:14:11;;;;;;;10.40;10.10;;;1.80;99.90;;;;;;6134828;23;20205;-80
2024/01/27 08:16:39;;;;;;;10.13;9.83;;;1.90;99.90;;;;;;6134364;23;20197;-82
2024/01/27 08:19:06;;;;;;;10.30;10.00;;;2.00;99.90;;;;;;6134828;23;20200;-80
2024/01/27 08:21:35;;;;;;;9.97;9.67;;;2.00;99.90;;;;;;6135046;23;20263;-81
2024/01/27 08:24:03;;;;;;;10.40;10.10;;;2.10;99.90;;;;;;6137564;23;20216;-80
2024/01/27 08:26:31;;;;;;;9.97;9.67;;;2.10;99.90;;;;;;6135101;23;20237;-80
2024/01/27 08:28:58;;;;;;;10.10;9.80;;;2.20;99.90;;;;;;6135763;23;20232;-81
2024/01/27 08:31:25;;;;;;;9.90;9.60;;;2.30;99.90;;;;;;6134744;23;20208;-80
2024/01/27 08:33:53;;;;;;;9.87;9.57;;;2.40;99.90;;;;;;6134729;23;20209;-80
2024/01/27 08:36:20;;;;;;;9.90;9.60;;;2.40;99.90;;;;;;6134330;23;20227;-80
2024/01/27 08:38:49;;;;;;;10.03;9.73;;;2.40;99.90;;;;;;6134122;23;20224;-82
2024/01/27 08:41:17;;;;;;;9.90;9.60;;;2.50;99.90;;;;;;6134630;23;20208;-80
2024/01/27 08:43:44;;;;;;;10.00;9.70;;;2.50;99.90;;;;;;6135475;23;20205;-80
2024/01/27 08:46:13;;;;;;;10.00;9.70;;;2.60;99.90;;;;;;6134196;23;20215;-80
2024/01/27 08:48:41;;;;;;;10.20;9.90;;;2.70;99.90;;;;;;6138927;23;20261;-80
2024/01/27 08:51:09;;;;;;;9.93;9.63;;;2.70;99.90;;;;;;6135059;23;20197;-81
2024/01/27 08:53:37;;;;;;;9.80;9.50;;;2.90;99.90;;;;;;6206325;22;20238;-85
2024/01/27 08:56:09;;;;;;;10.30;10.00;;;3.00;99.90;;;;;;6234344;23;20199;-84
2024/01/27 08:58:37;;;;;;;10.07;9.77;;;3.10;99.90;;;;;;6234521;23;20193;-84
2024/01/27 09:01:07;;;;;;;10.33;10.03;;;3.30;99.90;;;;;;6233200;23;20207;-85
2024/01/27 09:03:34;;;;;;;10.40;10.10;;;3.40;99.90;;;;;;6233810;22;20223;-85
2024/01/27 09:06:02;;;;;;;10.53;10.23;;;3.50;99.90;;;;;;6234306;23;20215;-85
2024/01/27 09:08:29;;;;;;;10.70;10.40;;;3.70;99.90;;;;;;6234894;23;20199;-85
2024/01/27 09:10:57;;;;;;;10.70;10.40;;;3.80;99.90;;;;;;6233932;23;20226;-86
2024/01/27 09:13:28;;;;;;;10.40;10.10;;;3.90;99.90;;;;;;6234773;22;20211;-85
2024/01/27 09:15:56;;;;;;;10.70;10.40;;;3.90;99.90;;;;;;6237202;23;20183;-85
2024/01/27 09:18:24;;;;;;;10.80;10.50;;;4.10;99.90;;;;;;6241163;22;20195;-85
2024/01/27 09:20:51;;;;;;;10.60;10.30;;;4.20;99.90;;;;;;6233468;23;20215;-85
2024/01/27 09:23:18;;;;;;;10.20;9.90;;;4.40;99.90;;;;;;6233324;22;20207;-86
2024/01/27 09:25:45;;;;;;;10.27;9.97;;;4.50;99.90;;;;;;6233775;23;20200;-85
2024/01/27 09:28:14;;;;;;;10.27;9.97;;;4.70;99.90;;;;;;6234464;23;20253;-86
2024/01/27 09:30:43;;;;;;;10.40;10.10;;;4.90;99.90;;;;;;6235061;23;20195;-86
2024/01/27 09:33:11;;;;;;;10.60;10.30;;;4.90;99.90;;;;;;6232839;22;20263;-86
2024/01/27 09:35:38;;;;;;;10.60;10.30;;;5.10;99.90;;;;;;6233543;23;20194;-85
2024/01/27 09:38:09;;;;;;;10.50;10.20;;;5.10;99.90;;;;;;6235053;23;20246;-86
2024/01/27 09:40:40;;;;;;;10.27;9.97;;;5.30;99.90;;;;;;6234526;23;20231;-85
2024/01/27 09:43:12;;;;;;;10.33;10.03;;;5.40;99.90;;;;;;6235414;22;20202;-86
2024/01/27 09:45:40;;;;;;;10.60;10.30;;;5.50;99.90;;;;;;6235686;23;20195;-86
2024/01/27 09:48:12;;;;;;;10.07;9.77;;;5.50;99.90;;;;;;6237093;23;20213;-86
2024/01/27 09:50:41;;;;;;;9.87;9.57;;;5.70;99.90;;;;;;6242941;23;20191;-85
2024/01/27 09:53:10;;;;;;;10.23;9.93;;;5.80;99.90;;;;;;6241709;22;20334;-85
2024/01/27 09:55:41;;;;;;;10.10;9.80;;;5.90;99.90;;;;;;6238031;23;20242;-86
2024/01/27 09:58:15;;;;;;;10.10;9.80;;;6.00;99.90;;;;;;6236710;23;20225;-86
2024/01/27 10:00:43;;;;;;;10.17;9.87;;;6.10;99.90;;;;;;6237465;23;20218;-85
2024/01/27 10:03:16;;;;;;;10.03;9.73;;;6.30;99.90;;;;;;6237773;22;20210;-85
2024/01/27 10:05:52;;;;;;;10.07;9.77;;;6.50;99.90;;;;;;6237452;23;20198;-85
2024/01/27 10:08:28;;;;;;;9.60;9.30;;;6.30;99.90;;;;;;6239540;23;20248;-85
2024/01/27 10:11:51;;;;;;;9.43;9.13;;;6.40;99.90;;;;;;6244503;22;20191;-85
2024/01/27 10:14:19;;;;;;;9.63;9.33;;;6.50;99.90;;;;;;6246201;22;20275;-85
2024/01/27 10:16:49;;;;;;;9.60;9.30;;;6.80;99.90;;;;;;6250241;22;20185;-84
2024/01/27 10:19:20;;;;;;;9.90;9.60;;;7.10;99.90;;;;;;6250260;22;20235;-84
2024/01/27 10:22:02;;;;;;;9.70;9.40;;;7.20;99.90;;;;;;6250432;22;20193;-84
2024/01/27 10:24:30;;;;;;;10.10;9.80;;;7.40;99.90;;;;;;6250422;22;20197;-85
2024/01/27 10:27:04;;;;;;;9.73;9.43;;;7.40;99.90;;;;;;6250334;22;20183;-85
2024/01/27 10:29:31;;;;;;;9.90;9.60;;;7.60;99.90;;;;;;6248431;23;20194;-86
2024/01/27 10:32:10;;;;;;;10.00;9.70;;;7.90;99.90;;;;;;6249388;22;20233;-85
2024/01/27 10:34:39;;;;;;;10.03;9.73;;;8.00;99.90;;;;;;6249880;22;20189;-84
2024/01/27 10:37:06;;;;;;;10.00;9.70;;;8.20;99.90;;;;;;6249867;22;20183;-84
2024/01/27 10:39:33;;;;;;;10.10;9.80;;;8.30;99.90;;;;;;6248715;22;20205;-85
2024/01/27 10:42:04;;;;;;;10.17;9.87;;;8.50;99.90;;;;;;6250065;22;20235;-84
2024/01/27 10:44:32;;;;;;;10.00;9.70;;;8.80;99.90;;;;;;6235819;23;20566;-85
2024/01/27 10:47:04;;;;;;;9.90;9.60;;;8.90;99.90;;;;;;6230399;23;20281;-86
2024/01/27 10:49:33;;;;;;;10.00;9.70;;;9.00;99.90;;;;;;6230341;23;20195;-85
2024/01/27 10:52:12;;;;;;;10.00;9.70;;;9.30;99.90;;;;;;6231276;22;20253;-85
2024/01/27 10:54:44;;;;;;;10.20;9.90;;;9.40;99.90;;;;;;6238478;23;20178;-86
2024/01/27 10:57:14;;;;;;;10.00;9.70;;;9.60;99.90;;;;;;6232587;23;20201;-86
2024/01/27 10:59:45;;;;;;;10.30;10.00;;;10.00;99.90;;;;;;6234621;23;20195;-85
2024/01/27 11:02:15;;;;;;;9.90;9.60;;;10.10;99.90;;;;;;6233855;22;20206;-86
2024/01/27 11:04:44;;;;;;;10.23;9.93;;;10.10;99.90;;;;;;6232468;23;20203;-86
2024/01/27 11:07:13;;;;;;;10.10;9.80;;;10.20;99.90;;;;;;6231627;23;20270;-86
2024/01/27 11:09:42;;;;;;;10.00;9.70;;;10.40;99.90;;;;;;6231385;23;20199;-88
2024/01/27 11:12:10;;;;;;;10.00;9.70;;;10.40;99.90;;;;;;6235251;22;20231;-87
2024/01/27 11:14:38;;;;;;;10.07;9.77;;;10.40;99.90;;;;;;6232552;23;20230;-86
2024/01/27 11:17:05;;;;;;;10.10;9.80;;;10.50;99.90;;;;;;6231122;23;20198;-87
2024/01/27 11:19:37;;;;;;;10.27;9.97;;;10.60;99.90;;;;;;6231146;23;20262;-86
2024/01/27 11:22:30;;;;;;;10.33;10.03;;;10.70;99.90;;;;;;6231346;22;20215;-87
2024/01/27 11:25:09;;;;;;;10.30;10.00;;;10.70;99.90;;;;;;6235800;23;20211;-87
2024/01/27 11:27:36;;;;;;;10.30;10.00;;;10.90;99.90;;;;;;6233581;23;20202;-87
2024/01/27 11:30:06;;;;;;;10.33;10.03;;;11.00;99.90;;;;;;6236272;23;20281;-86
2024/01/27 11:32:34;;;;;;;10.43;10.13;;;11.20;99.90;;;;;;6234688;22;20238;-86
2024/01/27 11:35:04;;;;;;;10.20;9.90;;;11.50;99.90;;;;;;6233098;23;20226;-86
2024/01/27 11:37:35;;;;;;;10.50;10.20;;;11.70;99.90;;;;;;6235768;23;20193;-85
2024/01/27 11:40:07;;;;;;;10.30;10.00;;;11.50;99.90;;;;;;6231833;23;20195;-86
2024/01/27 11:42:37;;;;;;;10.40;10.10;;;11.20;99.90;;;;;;6230351;22;20273;-86
2024/01/27 11:45:05;;;;;;;10.40;10.10;;;10.80;99.90;;;;;;6231174;23;20195;-86
2024/01/27 11:47:33;;;;;;;10.43;10.13;;;11.00;99.90;;;;;;6234550;23;20199;-86
2024/01/27 11:50:01;;;;;;;10.40;10.10;;;11.10;99.90;;;;;;6236786;23;20195;-86
2024/01/27 11:52:30;;;;;;;10.57;10.27;;;11.30;99.90;;;;;;6232953;22;20209;-85
2024/01/27 11:55:00;;;;;;;10.43;10.13;;;11.50;99.90;;;;;;6234115;23;20195;-87
2024/01/27 11:57:33;;;;;;;10.37;10.07;;;11.50;99.90;;;;;;6233381;23;20246;-86
2024/01/27 12:00:11;;;;;;;10.40;10.10;;;11.40;99.90;;;;;;6240124;23;20247;-86
2024/01/27 12:02:41;;;;;;;10.60;10.30;;;11.40;99.90;;;;;;6248081;22;20190;-86
2024/01/27 12:05:10;;;;;;;10.70;10.40;;;11.60;99.90;;;;;;6247762;22;20191;-85
2024/01/27 12:07:38;;;;;;;10.70;10.40;;;11.80;99.90;;;;;;6249298;22;20222;-86
2024/01/27 12:10:12;;;;;;;10.43;10.13;;;12.20;99.90;;;;;;6248283;22;20191;-86
2024/01/27 12:12:45;;;;;;;10.60;10.30;;;12.10;99.90;;;;;;6246324;22;20204;-86
2024/01/27 12:15:29;;;;;;;10.80;10.50;;;12.30;99.90;;;;;;6248058;22;20198;-86
2024/01/27 12:17:57;;;;;;;10.60;10.30;;;12.30;99.90;;;;;;6242802;23;20234;-86
2024/01/27 12:20:29;;;;;;;10.43;10.13;;;12.30;99.90;;;;;;6240579;23;20211;-86
2024/01/27 12:23:04;;;;;;;10.70;10.40;;;12.10;99.90;;;;;;6241398;22;20250;-86
2024/01/27 12:25:35;;;;;;;10.23;9.93;;;11.90;99.90;;;;;;6246677;23;20258;-86
2024/01/27 12:28:13;;;;;;;10.30;10.00;;;11.80;99.90;;;;;;6245985;23;20278;-87
2024/01/27 12:30:40;;;;;;;10.23;9.93;;;12.20;99.90;;;;;;6242628;23;20245;-87
2024/01/27 12:33:13;;;;;;;10.20;9.90;;;12.20;99.90;;;;;;6239913;22;20199;-87
2024/01/27 12:35:42;;;;;;;9.93;9.63;;;12.20;99.90;;;;;;6244239;22;20187;-86
2024/01/27 12:38:10;;;;;;;10.20;9.90;;;12.30;99.90;;;;;;6243455;22;20195;-87
2024/01/27 12:40:40;;;;;;;10.20;9.90;;;12.50;99.90;;;;;;6228976;23;20233;-87
2024/01/27 12:43:07;;;;;;;10.00;9.70;;;12.70;99.90;;;;;;6229540;22;20206;-86
2024/01/27 12:46:34;;;;;;;10.20;9.90;;;12.70;99.90;;;;;;6230414;23;20210;-83
2024/01/27 12:55:20;;;;;;;9.90;9.60;;;12.80;99.90;;;;;;6193194;22;20264;-86
2024/01/27 12:59:03;;;;;;;10.13;9.83;;;12.80;99.90;;;;;;6230236;23;20199;-87
2024/01/27 13:02:18;;;;;;;10.20;9.90;;;13.00;99.90;;;;;;6111175;23;20197;-86
2024/01/27 13:16:03;;;;;;;10.47;10.17;;;13.80;99.90;;;;;;6181076;22;20209;-88
2024/01/27 13:18:34;;;;;;;10.13;9.83;;;14.00;99.90;;;;;;6213293;23;20225;-85
2024/01/27 13:21:04;;;;;;;10.50;10.20;;;14.00;99.90;;;;;;6229394;23;20203;-84
2024/01/27 13:23:33;;;;;;;10.30;10.00;;;13.80;99.90;;;;;;6231226;22;20199;-85
2024/01/27 13:26:11;;;;;;;10.20;9.90;;;13.40;99.90;;;;;;6231559;23;20214;-87
2024/01/27 13:28:41;;;;;;;10.03;9.73;;;13.30;99.90;;;;;;6231757;23;20195;-86
2024/01/27 13:31:16;;;;;;;10.00;9.70;;;13.30;99.90;;;;;;6238803;23;20257;-85
2024/01/27 13:33:51;;;;;;;9.90;9.60;;;13.70;99.90;;;;;;6231767;22;20202;-85
2024/01/27 13:36:19;;;;;;;10.00;9.70;;;13.80;99.90;;;;;;6232984;23;20285;-86
2024/01/27 13:38:53;;;;;;;9.80;9.50;;;13.80;99.90;;;;;;6232800;23;20289;-85
2024/01/27 13:41:37;;;;;;;10.00;9.70;;;13.90;99.90;;;;;;6231661;23;20209;-87
2024/01/27 13:44:44;;;;;;;9.80;9.50;;;14.00;99.90;;;;;;6228469;23;20202;-88
2024/01/27 13:48:45;;;;;;;;;;;;;;;;;;;;;
2024/01/27 13:55:37;;;;;;;9.57;9.27;;;13.80;99.90;;;;;;6091039;23;20242;-88
2024/01/27 13:59:19;;;;;;;9.25;8.98;;;14.10;99.90;;;;;;6111630;23;20265;-88
2024/01/27 14:02:06;;;;;;;9.48;9.18;;;14.60;99.90;;;;;;6115131;23;20214;-89
2024/01/27 14:05:20;;;;;;;9.70;9.40;;;15.10;99.90;;;;;;6220847;23;20198;-88
2024/01/27 14:08:19;;;;;;;9.55;9.25;;;15.40;99.90;;;;;;6248048;22;20189;-88
2024/01/27 14:11:22;;;;;;;9.60;9.30;;;15.60;99.90;;;;;;6236793;23;20222;-87
2024/01/27 14:14:04;;;;;;;9.43;9.13;;;15.30;99.90;;;;;;6232328;22;20210;-87
2024/01/27 14:16:41;;;;;;;9.07;8.88;;;15.70;99.90;;;;;;6232961;22;21029;-87
2024/01/27 14:19:33;;;;;;;;;;;;;;;;;;;;;
2024/01/27 14:22:49;;;;;;;9.00;8.80;;;16.00;99.90;;;;;;6233795;22;20206;-87
2024/01/27 14:25:18;;;;;;;9.10;8.90;;;16.20;99.90;;;;;;6186876;23;20222;-86
2024/01/27 14:27:55;;;;;;;9.57;9.27;;;15.90;99.90;;;;;;6234383;23;20194;-86
2024/01/27 14:30:23;;;;;;;9.70;9.40;;;16.30;99.90;;;;;;6234006;23;20225;-87
2024/01/27 14:33:24;;;;;;;;;;;;;;;;;;;;;
2024/01/27 14:40:42;;;;;;;9.70;9.40;;;16.60;99.90;;;;;;6124590;23;20228;-92
2024/01/27 14:52:24;;;;;;;9.63;9.32;;;16.60;99.90;;;;;;6059750;22;20209;-80
2024/01/27 14:54:51;;;;;;;9.65;9.35;;;16.50;99.90;;;;;;6262902;22;20210;-81
2024/01/27 14:57:19;;;;;;;9.68;9.38;;;16.90;99.90;;;;;;6266040;22;20191;-81
2024/01/27 14:59:46;;;;;;;9.70;9.40;;;16.70;99.90;;;;;;6267539;22;20209;-84
2024/01/27 15:02:14;;;;;;;9.75;9.45;;;16.60;99.90;;;;;;6260982;22;20198;-80
2024/01/27 15:04:41;;;;;;;9.85;9.55;;;16.50;99.90;;;;;;6233857;23;20199;-81
2024/01/27 15:07:15;;;;;;;9.82;9.52;;;16.30;99.90;;;;;;6235446;23;20251;-83
2024/01/27 15:09:44;;;;;;;9.90;9.60;;;15.70;99.90;;;;;;6234444;23;20195;-83
2024/01/27 15:12:16;;;;;;;10.10;9.80;;;15.20;99.90;;;;;;6233915;22;20219;-81
2024/01/27 15:14:43;;;;;;;10.07;9.77;;;14.80;99.90;;;;;;6235167;23;20204;-81
2024/01/27 15:17:11;;;;;;;10.00;9.70;;;14.20;99.90;;;;;;6237495;23;20266;-82
2024/01/27 15:19:38;;;;;;;9.73;9.43;;;13.80;99.90;;;;;;6235569;23;20294;-81
2024/01/27 15:22:05;;;;;;;9.60;9.30;;;13.40;99.90;;;;;;6233665;22;20209;-81
2024/01/27 15:24:36;;;;;;;10.07;9.77;;;13.00;99.90;;;;;;6235161;23;20257;-81
2024/01/27 15:27:05;;;;;;;10.10;9.80;;;12.60;99.90;;;;;;6233490;23;20194;-80
2024/01/27 15:29:39;;;;;;;10.10;9.80;;;12.20;99.90;;;;;;6233218;23;20203;-79
2024/01/27 15:32:08;;;;;;;10.03;9.73;;;11.80;99.90;;;;;;6233016;22;20203;-79
2024/01/27 15:34:35;;;;;;;9.90;9.60;;;11.40;99.90;;;;;;6232569;23;20207;-78
2024/01/27 15:37:02;;;;;;;9.70;9.40;;;11.10;99.90;;;;;;6232583;23;20195;-79
2024/01/27 15:39:30;;;;;;;10.00;9.70;;;11.00;99.90;;;;;;6234551;23;20187;-79
2024/01/27 15:41:57;;;;;;;10.00;9.70;;;10.80;99.90;;;;;;6227809;23;20274;-80
2024/01/27 15:44:26;;;;;;;9.90;9.60;;;10.60;99.90;;;;;;6230550;23;20214;-79
2024/01/27 15:46:53;;;;;;;9.60;9.30;;;10.40;99.90;;;;;;6232962;23;20190;-78
2024/01/27 15:49:26;;;;;;;9.80;9.50;;;10.30;99.90;;;;;;6233785;23;20210;-80
2024/01/27 15:51:53;;;;;;;9.80;9.50;;;9.90;99.90;;;;;;6245927;23;20238;-81
2024/01/27 15:54:21;;;;;;;9.37;9.07;;;9.40;99.90;;;;;;6243587;23;20215;-83
2024/01/27 15:56:49;;;;;;;9.43;9.13;;;9.20;99.90;;;;;;6241331;23;20195;-81
2024/01/27 15:59:16;;;;;;;9.50;9.20;;;9.10;99.90;;;;;;6239516;23;20204;-81
2024/01/27 16:01:45;;;;;;;9.60;9.30;;;8.90;99.90;;;;;;6240224;23;20238;-81
2024/01/27 16:04:13;;;;;;;9.70;9.40;;;8.70;99.90;;;;;;6238020;22;20199;-83
2024/01/27 16:06:41;;;;;;;9.70;9.40;;;8.50;99.90;;;;;;6236314;23;20221;-83
2024/01/27 16:09:09;;;;;;;9.50;9.20;;;8.40;99.90;;;;;;6239784;23;20214;-83
2024/01/27 16:11:37;;;;;;;9.57;9.27;;;8.10;99.90;;;;;;6232671;23;20671;-83
2024/01/27 16:14:05;;;;;;;9.47;9.17;;;7.70;99.90;;;;;;6230332;22;20206;-83
2024/01/27 16:16:32;;;;;;;9.63;9.33;;;7.50;99.90;;;;;;6230722;23;20206;-83
2024/01/27 16:19:01;;;;;;;9.73;9.43;;;7.30;99.90;;;;;;6230264;23;20206;-82
2024/01/27 16:21:29;;;;;;;9.57;9.27;;;7.20;99.90;;;;;;6230513;23;20201;-83
2024/01/27 16:23:56;;;;;;;9.20;8.90;;;7.20;99.90;;;;;;6230612;22;20199;-83
2024/01/27 16:26:24;;;;;;;9.40;9.10;;;7.10;99.90;;;;;;6232464;23;20203;-82
2024/01/27 16:28:54;;;;;;;9.43;9.13;;;7.10;99.90;;;;;;6244773;23;20203;-82
2024/01/27 16:31:29;;;;;;;8.83;8.63;;;7.10;99.90;;;;;;6246941;22;20272;-82
2024/01/27 16:33:56;;;;;;;8.80;8.60;;;7.00;99.90;;;;;;6247583;22;20193;-81